Welcome!

Visit our other weather sites:

Template documentation
and downloads

And another site



There are no active watches, warnings or advisories

Nearby METAR Reports

   
KAVP - Albrightsville, PA
Updated: Jun 26 2019 1:54 am
Clear  
Clear  
   Wind: SE 3.5 mph
Wind: SE 3.5 mph
Temperature: 64.4°F
Dew Point: 57.2°F
Humidity: 78%
Barometer: 30.01 inHg
Clouds: Clear
Visibility: 10 mi
Cloud details: Clear
KAVP 260654Z 13003KT 10SM CLR 18/14 A3001 RMK AO2 SLP154 T01780139
KIWA - Apache Junction, AZ
Updated: Jun 26 2019 2:35 am
Clear  
Clear  
   Wind: ESE 5.8 mph
Wind: ESE 5.8 mph
Temperature: 80.6°F
Dew Point: 32°F
Humidity: 17%
Barometer: 29.85 inHg
Clouds: Clear
Visibility: 10 mi
Cloud details: Clear
KIWA 260735Z AUTO 11005KT 10SM CLR 27/00 A2985 RMK AO2 T02691001
KPKB - Blue Rock, OH
Updated: Jun 26 2019 1:53 am
Clear  
Clear  
   Wind: SSW 4.6 mph
Wind: SSW 4.6 mph
Temperature: 66.2°F
Dew Point: 60.8°F
Humidity: 83%
Barometer: 30.13 inHg
Clouds: Clear
Visibility: 10 mi
Cloud details: Clear
KPKB 260653Z AUTO 20004KT 10SM CLR 19/16 A3013 RMK AO2 SLP195 T01890156
KHVN - Branford, CT
Updated: Jun 26 2019 2:39 am
Mist, Overcast  
Mist, Overcast  
   Wind: Calm
Wind: Calm
Temperature: 71.6°F
Dew Point: 69.8°F
Humidity: 94%
Barometer: 29.94 inHg
Clouds: Overcast
Visibility: 2 mi
Cloud details: Mostly Cloudy 61 m,
Mostly Cloudy 1524 m,
Overcast 2438 m
KHVN 260739Z AUTO 00000KT 2SM BR BKN002 BKN050 OVC080 22/21 A2994 RMK AO2 T02220211
KPHX - Carefree, AZ
Updated: Jun 26 2019 1:51 am
Few Clouds  
Few Clouds  
   Wind: West 13.8 mph
Wind: West 13.8 mph
Temperature: 89.6°F
Dew Point: 30.2°F
Humidity: 12%
Barometer: 29.8 inHg
Clouds: Few Clouds
Visibility: 10 mi
Cloud details: Few Clouds 6706 m
KPHX 260651Z 28012KT 10SM FEW220 32/M01 A2980 RMK AO2 SLP069 T03171006 404060244
 

Script developed by  Saratoga-weather.org Adapted for the template by  Weerstation Leuven